GLD166 SNIO-SNIB

Flight info

Callsign GLD166
Flight time 1h 17m
Altitude 4500
Route 1137S03859W 1211S03943W
Aircraft C182/M-SDFGIRY/S

Departure

Time 2026-04-27 16:48
Airport Cipó Airport (SNIO)

Arrival

Time 2026-04-27 18:05
Airport Itaberaba Airport (SNIB)
Time Latitude Longitude Altitude Speed Heading
2026-04-27 16:45 -11.12375 -38.49322 747 ft 0 kts 25°
2026-04-27 16:45 -11.12374 -38.49322 747 ft 1 kts 25°
2026-04-27 16:46 -11.12362 -38.49315 745 ft 0 kts 19°
2026-04-27 16:46 -11.12360 -38.49315 745 ft 3 kts 19°
2026-04-27 16:46 -11.12305 -38.49312 747 ft 7 kts 313°
2026-04-27 16:46 -11.12332 -38.49212 747 ft 37 kts 110°
2026-04-27 16:47 -11.12480 -38.48840 776 ft 71 kts 113°
2026-04-27 16:47 -11.12678 -38.48336 927 ft 80 kts 116°
2026-04-27 16:47 -11.13189 -38.48138 1046 ft 91 kts 184°
2026-04-27 16:47 -11.13876 -38.48189 1140 ft 111 kts 180°
2026-04-27 16:48 -11.14585 -38.48557 1243 ft 126 kts 219°
2026-04-27 16:48 -11.15249 -38.49184 1359 ft 132 kts 219°
2026-04-27 16:48 -11.15950 -38.49810 1495 ft 138 kts 218°
2026-04-27 16:49 -11.17468 -38.51187 1754 ft 151 kts 217°
2026-04-27 16:49 -11.18254 -38.51905 1883 ft 152 kts 217°
2026-04-27 16:49 -11.19030 -38.52634 2015 ft 152 kts 220°
2026-04-27 16:49 -11.19822 -38.53362 2141 ft 156 kts 218°
2026-04-27 16:50 -11.20621 -38.54111 2270 ft 160 kts 219°
2026-04-27 16:50 -11.21443 -38.54872 2369 ft 156 kts 217°
2026-04-27 16:50 -11.22223 -38.55605 2483 ft 150 kts 218°
2026-04-27 16:50 -11.22986 -38.56315 2605 ft 146 kts 217°
2026-04-27 16:51 -11.23745 -38.57023 2744 ft 151 kts 219°
2026-04-27 16:51 -11.24523 -38.57731 2847 ft 149 kts 218°
2026-04-27 16:51 -11.25318 -38.58437 2978 ft 153 kts 216°
2026-04-27 16:51 -11.26122 -38.59159 3087 ft 152 kts 218°
2026-04-27 16:52 -11.26919 -38.59867 3215 ft 152 kts 217°
2026-04-27 16:52 -11.27708 -38.60575 3333 ft 151 kts 217°
2026-04-27 16:52 -11.28496 -38.61280 3453 ft 153 kts 219°
2026-04-27 16:52 -11.29297 -38.61989 3567 ft 152 kts 218°
2026-04-27 16:53 -11.30093 -38.62706 3693 ft 153 kts 217°
2026-04-27 16:53 -11.30891 -38.63430 3807 ft 153 kts 218°
2026-04-27 16:53 -11.31676 -38.64140 3932 ft 149 kts 217°
2026-04-27 16:53 -11.32455 -38.64853 4051 ft 152 kts 218°
2026-04-27 16:54 -11.33245 -38.65557 4165 ft 148 kts 217°
2026-04-27 16:54 -11.34013 -38.66248 4291 ft 148 kts 218°
2026-04-27 16:54 -11.34776 -38.66948 4449 ft 145 kts 217°
2026-04-27 16:54 -11.35535 -38.67641 4514 ft 151 kts 218°
2026-04-27 16:55 -11.36325 -38.68364 4519 ft 155 kts 217°
2026-04-27 16:55 -11.37135 -38.69108 4522 ft 157 kts 218°
2026-04-27 16:55 -11.37956 -38.69849 4533 ft 159 kts 217°
2026-04-27 16:55 -11.38778 -38.70607 4521 ft 158 kts 218°
2026-04-27 16:56 -11.39599 -38.71358 4535 ft 159 kts 217°
2026-04-27 16:56 -11.40421 -38.72114 4534 ft 161 kts 218°
2026-04-27 16:56 -11.41258 -38.72878 4537 ft 162 kts 217°
2026-04-27 16:56 -11.42100 -38.73644 4542 ft 163 kts 217°
2026-04-27 16:57 -11.42950 -38.74411 4543 ft 163 kts 217°
2026-04-27 16:57 -11.43795 -38.75179 4544 ft 164 kts 217°
2026-04-27 16:57 -11.44368 -38.75702 4540 ft 164 kts 218°
2026-04-27 16:57 -11.45208 -38.76458 4551 ft 163 kts 217°
2026-04-27 16:58 -11.46069 -38.77224 4537 ft 164 kts 217°
2026-04-27 16:58 -11.46927 -38.77986 4538 ft 163 kts 218°
2026-04-27 16:58 -11.47783 -38.78733 4551 ft 163 kts 217°
2026-04-27 16:58 -11.48646 -38.79493 4536 ft 161 kts 217°
2026-04-27 16:59 -11.49501 -38.80244 4551 ft 164 kts 218°
2026-04-27 16:59 -11.50364 -38.81006 4561 ft 168 kts 217°
2026-04-27 16:59 -11.51243 -38.81775 4540 ft 163 kts 216°
2026-04-27 16:59 -11.52098 -38.82526 4543 ft 161 kts 217°
2026-04-27 17:00 -11.53528 -38.83801 4538 ft 163 kts 217°
2026-04-27 17:00 -11.54658 -38.84811 4542 ft 162 kts 217°
2026-04-27 17:00 -11.55501 -38.85564 4541 ft 162 kts 217°
2026-04-27 17:01 -11.56342 -38.86325 4539 ft 160 kts 216°
2026-04-27 17:01 -11.57180 -38.87081 4540 ft 160 kts 217°
2026-04-27 17:01 -11.58013 -38.87830 4539 ft 160 kts 218°
2026-04-27 17:01 -11.58849 -38.88578 4539 ft 160 kts 218°
2026-04-27 17:02 -11.59692 -38.89327 4543 ft 160 kts 218°
2026-04-27 17:02 -11.60535 -38.90068 4539 ft 159 kts 217°
2026-04-27 17:02 -11.61366 -38.90797 4544 ft 160 kts 217°
2026-04-27 17:02 -11.62177 -38.91599 4526 ft 163 kts 229°
2026-04-27 17:03 -11.62817 -38.92555 4534 ft 163 kts 232°
2026-04-27 17:03 -11.63458 -38.93509 4524 ft 165 kts 231°
2026-04-27 17:03 -11.64104 -38.94473 4526 ft 164 kts 231°
2026-04-27 17:03 -11.64750 -38.95433 4541 ft 164 kts 231°
2026-04-27 17:04 -11.65401 -38.96400 4539 ft 165 kts 232°
2026-04-27 17:04 -11.66049 -38.97367 4538 ft 165 kts 232°
2026-04-27 17:04 -11.66688 -38.98339 4537 ft 165 kts 231°
2026-04-27 17:04 -11.67323 -38.99300 4538 ft 162 kts 232°
2026-04-27 17:05 -11.67957 -39.00250 4532 ft 162 kts 232°
2026-04-27 17:05 -11.68588 -39.01186 4535 ft 160 kts 232°
2026-04-27 17:05 -11.69218 -39.02125 4528 ft 160 kts 231°
2026-04-27 17:05 -11.69839 -39.03057 4521 ft 161 kts 232°
2026-04-27 17:06 -11.70469 -39.03995 4532 ft 161 kts 232°
2026-04-27 17:06 -11.71113 -39.04947 4536 ft 164 kts 231°
2026-04-27 17:06 -11.71766 -39.05900 4532 ft 163 kts 232°
2026-04-27 17:06 -11.72412 -39.06854 4539 ft 164 kts 232°
2026-04-27 17:07 -11.73062 -39.07813 4539 ft 165 kts 232°
2026-04-27 17:07 -11.73717 -39.08776 4534 ft 165 kts 232°
2026-04-27 17:07 -11.74370 -39.09739 4531 ft 165 kts 232°
2026-04-27 17:07 -11.75018 -39.10692 4536 ft 162 kts 231°
2026-04-27 17:08 -11.75647 -39.11624 4542 ft 161 kts 232°
2026-04-27 17:08 -11.76290 -39.12573 4537 ft 163 kts 232°
2026-04-27 17:08 -11.76938 -39.13529 4537 ft 164 kts 232°
2026-04-27 17:08 -11.77588 -39.14484 4533 ft 163 kts 232°
2026-04-27 17:09 -11.78243 -39.15431 4538 ft 164 kts 231°
2026-04-27 17:09 -11.78896 -39.16375 4542 ft 163 kts 231°
2026-04-27 17:09 -11.79551 -39.17320 4530 ft 162 kts 231°
2026-04-27 17:09 -11.80199 -39.18256 4521 ft 161 kts 231°
2026-04-27 17:10 -11.80845 -39.19189 4524 ft 161 kts 231°
2026-04-27 17:10 -11.81490 -39.20119 4520 ft 159 kts 232°
2026-04-27 17:10 -11.82128 -39.21046 4529 ft 159 kts 232°
2026-04-27 17:10 -11.82757 -39.21962 4531 ft 161 kts 232°
2026-04-27 17:11 -11.83400 -39.22901 4531 ft 162 kts 232°
2026-04-27 17:11 -11.84696 -39.24786 4523 ft 161 kts 231°
2026-04-27 17:11 -11.85334 -39.25728 4530 ft 162 kts 232°
2026-04-27 17:12 -11.86623 -39.27613 4529 ft 162 kts 231°
2026-04-27 17:12 -11.87273 -39.28554 4530 ft 162 kts 232°
2026-04-27 17:12 -11.87933 -39.29497 4521 ft 163 kts 231°
2026-04-27 17:13 -11.88579 -39.30426 4527 ft 162 kts 232°
2026-04-27 17:13 -11.89235 -39.31358 4528 ft 162 kts 231°
2026-04-27 17:13 -11.89894 -39.32292 4530 ft 162 kts 231°
2026-04-27 17:13 -11.90548 -39.33220 4531 ft 161 kts 231°
2026-04-27 17:14 -11.91206 -39.34159 4531 ft 163 kts 231°
2026-04-27 17:14 -11.91864 -39.35093 4530 ft 162 kts 231°
2026-04-27 17:14 -11.92521 -39.36029 4519 ft 163 kts 231°
2026-04-27 17:14 -11.93176 -39.36967 4533 ft 162 kts 231°
2026-04-27 17:15 -11.93834 -39.37911 4523 ft 163 kts 231°
2026-04-27 17:15 -11.94491 -39.38851 4531 ft 164 kts 231°
2026-04-27 17:15 -11.95149 -39.39792 4527 ft 161 kts 231°
2026-04-27 17:15 -11.95797 -39.40727 4517 ft 161 kts 232°
2026-04-27 17:16 -11.96447 -39.41647 4528 ft 159 kts 231°
2026-04-27 17:16 -11.97086 -39.42558 4528 ft 160 kts 231°
2026-04-27 17:16 -11.97743 -39.43492 4525 ft 162 kts 231°
2026-04-27 17:16 -11.98408 -39.44434 4532 ft 164 kts 231°
2026-04-27 17:17 -11.99076 -39.45376 4536 ft 163 kts 231°
2026-04-27 17:17 -11.99740 -39.46313 4538 ft 164 kts 231°
2026-04-27 17:17 -12.00413 -39.47259 4530 ft 164 kts 231°
2026-04-27 17:18 -12.01758 -39.49166 4520 ft 165 kts 231°
2026-04-27 17:18 -12.02424 -39.50113 4526 ft 164 kts 231°
2026-04-27 17:18 -12.03093 -39.51059 4525 ft 163 kts 231°
2026-04-27 17:18 -12.03760 -39.51994 4521 ft 161 kts 231°
2026-04-27 17:19 -12.04413 -39.52917 4513 ft 164 kts 231°
2026-04-27 17:19 -12.05080 -39.53860 4512 ft 163 kts 231°
2026-04-27 17:19 -12.05745 -39.54794 4518 ft 162 kts 231°
2026-04-27 17:19 -12.06411 -39.55719 4520 ft 161 kts 230°
2026-04-27 17:20 -12.07079 -39.56644 4519 ft 163 kts 231°
2026-04-27 17:20 -12.07755 -39.57581 4522 ft 163 kts 231°
2026-04-27 17:20 -12.08429 -39.58513 4524 ft 164 kts 231°
2026-04-27 17:20 -12.09106 -39.59450 4524 ft 164 kts 230°
2026-04-27 17:21 -12.09779 -39.60383 4523 ft 163 kts 231°
2026-04-27 17:21 -12.10445 -39.61311 4525 ft 161 kts 231°
2026-04-27 17:21 -12.11112 -39.62237 4529 ft 163 kts 231°
2026-04-27 17:21 -12.11786 -39.63181 4520 ft 163 kts 231°
2026-04-27 17:22 -12.12452 -39.64113 4524 ft 162 kts 231°
2026-04-27 17:22 -12.13113 -39.65041 4527 ft 162 kts 231°
2026-04-27 17:22 -12.13788 -39.65979 4518 ft 164 kts 231°
2026-04-27 17:22 -12.14455 -39.66912 4527 ft 166 kts 231°
2026-04-27 17:23 -12.15142 -39.67872 4535 ft 168 kts 231°
2026-04-27 17:23 -12.15833 -39.68827 4521 ft 167 kts 231°
2026-04-27 17:23 -12.16521 -39.69780 4531 ft 166 kts 231°
2026-04-27 17:23 -12.17222 -39.70744 4536 ft 169 kts 231°
2026-04-27 17:24 -12.17919 -39.71691 4534 ft 166 kts 231°
2026-04-27 17:24 -12.18613 -39.72641 4532 ft 167 kts 231°
2026-04-27 17:24 -12.19291 -39.73565 4529 ft 162 kts 230°
2026-04-27 17:24 -12.19969 -39.74491 4533 ft 163 kts 231°
2026-04-27 17:25 -12.20654 -39.75430 4532 ft 165 kts 230°
2026-04-27 17:25 -12.21334 -39.76370 4534 ft 165 kts 231°
2026-04-27 17:25 -12.22018 -39.77313 4531 ft 165 kts 230°
2026-04-27 17:25 -12.22702 -39.78251 4533 ft 165 kts 231°
2026-04-27 17:26 -12.23391 -39.79190 4532 ft 166 kts 231°
2026-04-27 17:26 -12.24085 -39.80130 4530 ft 164 kts 230°
2026-04-27 17:26 -12.24764 -39.81062 4531 ft 163 kts 231°
2026-04-27 17:26 -12.25444 -39.81991 4523 ft 163 kts 231°
2026-04-27 17:27 -12.26118 -39.82920 4529 ft 162 kts 231°
2026-04-27 17:27 -12.26791 -39.83844 4528 ft 165 kts 231°
2026-04-27 17:27 -12.27478 -39.84786 4521 ft 165 kts 231°
2026-04-27 17:27 -12.28165 -39.85720 4524 ft 164 kts 230°
2026-04-27 17:28 -12.28849 -39.86655 4533 ft 163 kts 231°
2026-04-27 17:28 -12.29532 -39.87588 4517 ft 164 kts 231°
2026-04-27 17:28 -12.30913 -39.89464 4531 ft 165 kts 230°
2026-04-27 17:29 -12.31601 -39.90398 4533 ft 164 kts 231°
2026-04-27 17:29 -12.32291 -39.91328 4525 ft 164 kts 230°
2026-04-27 17:29 -12.32977 -39.92255 4522 ft 163 kts 230°
2026-04-27 17:29 -12.33654 -39.93168 4526 ft 163 kts 230°
2026-04-27 17:30 -12.34341 -39.94093 4528 ft 164 kts 230°
2026-04-27 17:30 -12.35707 -39.95949 4518 ft 163 kts 230°
2026-04-27 17:30 -12.36392 -39.96883 4525 ft 164 kts 231°
2026-04-27 17:31 -12.37079 -39.97815 4531 ft 164 kts 231°
2026-04-27 17:31 -12.37772 -39.98738 4518 ft 162 kts 230°
2026-04-27 17:31 -12.38460 -39.99654 4520 ft 163 kts 230°
2026-04-27 17:31 -12.39154 -40.00573 4522 ft 164 kts 230°
2026-04-27 17:32 -12.39847 -40.01498 4521 ft 164 kts 231°
2026-04-27 17:32 -12.41221 -40.03350 4524 ft 165 kts 231°
2026-04-27 17:32 -12.41918 -40.04285 4526 ft 165 kts 231°
2026-04-27 17:33 -12.42623 -40.05218 4514 ft 165 kts 231°
2026-04-27 17:33 -12.43324 -40.06148 4518 ft 164 kts 230°
2026-04-27 17:33 -12.44012 -40.07063 4513 ft 162 kts 230°
2026-04-27 17:33 -12.44705 -40.07985 4525 ft 165 kts 230°
2026-04-27 17:34 -12.45408 -40.08921 4526 ft 166 kts 230°
2026-04-27 17:34 -12.46112 -40.09858 4521 ft 166 kts 230°
2026-04-27 17:34 -12.46816 -40.10791 4525 ft 165 kts 230°
2026-04-27 17:34 -12.47518 -40.11717 4522 ft 163 kts 230°
2026-04-27 17:35 -12.48206 -40.12624 4524 ft 164 kts 230°
2026-04-27 17:35 -12.48907 -40.13549 4526 ft 165 kts 230°
2026-04-27 17:35 -12.49609 -40.14480 4528 ft 165 kts 230°
2026-04-27 17:35 -12.50315 -40.15414 4524 ft 166 kts 230°
2026-04-27 17:36 -12.51024 -40.16345 4525 ft 166 kts 230°
2026-04-27 17:36 -12.51731 -40.17277 4525 ft 166 kts 230°
2026-04-27 17:36 -12.52439 -40.18199 4523 ft 164 kts 230°
2026-04-27 17:36 -12.53148 -40.19121 4525 ft 165 kts 230°
2026-04-27 17:37 -12.53862 -40.20044 4523 ft 165 kts 230°
2026-04-27 17:37 -12.54572 -40.20966 4524 ft 164 kts 230°
2026-04-27 17:37 -12.55281 -40.21889 4527 ft 166 kts 230°
2026-04-27 17:37 -12.55996 -40.22815 4522 ft 165 kts 230°
2026-04-27 17:38 -12.56704 -40.23734 4513 ft 164 kts 230°
2026-04-27 17:38 -12.57407 -40.24642 4517 ft 162 kts 230°
2026-04-27 17:38 -12.58102 -40.25535 4524 ft 162 kts 230°
2026-04-27 17:38 -12.58807 -40.26442 4523 ft 164 kts 230°
2026-04-27 17:39 -12.59517 -40.27354 4523 ft 164 kts 230°
2026-04-27 17:39 -12.60228 -40.28272 4525 ft 164 kts 230°
2026-04-27 17:39 -12.60941 -40.29193 4524 ft 165 kts 230°
2026-04-27 17:39 -12.61662 -40.30113 4523 ft 166 kts 230°
2026-04-27 17:40 -12.62377 -40.31026 4526 ft 163 kts 230°
2026-04-27 17:40 -12.63083 -40.31925 4526 ft 165 kts 230°
2026-04-27 17:40 -12.63803 -40.32842 4527 ft 165 kts 230°
2026-04-27 17:40 -12.64518 -40.33760 4526 ft 164 kts 230°
2026-04-27 17:41 -12.65231 -40.34677 4525 ft 165 kts 230°
2026-04-27 17:41 -12.65944 -40.35594 4526 ft 165 kts 230°
2026-04-27 17:41 -12.66668 -40.36522 4534 ft 167 kts 230°
2026-04-27 17:41 -12.67403 -40.37451 4512 ft 168 kts 230°
2026-04-27 17:42 -12.68124 -40.38368 4533 ft 165 kts 230°
2026-04-27 17:42 -12.68849 -40.39285 4527 ft 166 kts 229°
2026-04-27 17:42 -12.69570 -40.40199 4524 ft 164 kts 229°
2026-04-27 17:42 -12.70280 -40.41108 4520 ft 163 kts 230°
2026-04-27 17:43 -12.70989 -40.42013 4520 ft 163 kts 229°
2026-04-27 17:43 -12.71696 -40.42921 4521 ft 163 kts 230°
2026-04-27 17:43 -12.72395 -40.43813 4514 ft 162 kts 230°
2026-04-27 17:43 -12.73105 -40.44715 4525 ft 163 kts 230°
2026-04-27 17:44 -12.73820 -40.45628 4523 ft 164 kts 230°
2026-04-27 17:44 -12.74539 -40.46540 4526 ft 165 kts 230°
2026-04-27 17:44 -12.75258 -40.47456 4524 ft 164 kts 230°
2026-04-27 17:44 -12.75974 -40.48369 4526 ft 165 kts 230°
2026-04-27 17:45 -12.76694 -40.49278 4525 ft 164 kts 230°
2026-04-27 17:45 -12.77414 -40.50184 4525 ft 164 kts 230°
2026-04-27 17:45 -12.78133 -40.51086 4521 ft 163 kts 230°
2026-04-27 17:45 -12.78844 -40.51979 4522 ft 161 kts 230°
2026-04-27 17:46 -12.79554 -40.52878 4521 ft 163 kts 229°
2026-04-27 17:46 -12.80027 -40.53478 4523 ft 163 kts 229°
2026-04-27 17:46 -12.80979 -40.54686 4520 ft 163 kts 230°
2026-04-27 17:46 -12.81685 -40.55576 4521 ft 163 kts 229°
2026-04-27 17:47 -12.82401 -40.56472 4520 ft 162 kts 230°
2026-04-27 17:47 -12.82643 -40.56775 4523 ft 162 kts 229°
2026-04-27 17:47 -12.83838 -40.58268 4521 ft 163 kts 229°
2026-04-27 17:47 -12.84315 -40.58864 4524 ft 163 kts 229°
2026-04-27 17:48 -12.85035 -40.59769 4521 ft 164 kts 230°
2026-04-27 17:48 -12.85757 -40.60673 4519 ft 163 kts 230°
2026-04-27 17:48 -12.86070 -40.61766 4446 ft 167 kts 276°
2026-04-27 17:48 -12.85464 -40.62737 4336 ft 166 kts 327°
2026-04-27 17:49 -12.84371 -40.62891 4236 ft 162 kts 14°
2026-04-27 17:49 -12.83328 -40.62482 4182 ft 159 kts 28°
2026-04-27 17:49 -12.82379 -40.61895 4116 ft 160 kts 38°
2026-04-27 17:49 -12.81580 -40.61091 4037 ft 162 kts 48°
2026-04-27 17:50 -12.80792 -40.60252 3967 ft 163 kts 47°
2026-04-27 17:50 -12.79223 -40.58575 3825 ft 163 kts 47°
2026-04-27 17:50 -12.78437 -40.57732 3761 ft 164 kts 47°
2026-04-27 17:51 -12.77654 -40.56897 3683 ft 164 kts 47°
2026-04-27 17:51 -12.76858 -40.56053 3615 ft 164 kts 47°
2026-04-27 17:51 -12.76062 -40.55215 3543 ft 164 kts 47°
2026-04-27 17:51 -12.75273 -40.54375 3469 ft 160 kts 47°
2026-04-27 17:52 -12.74497 -40.53541 3398 ft 163 kts 47°
2026-04-27 17:52 -12.73710 -40.52696 3328 ft 164 kts 47°
2026-04-27 17:52 -12.72919 -40.51851 3263 ft 165 kts 47°
2026-04-27 17:52 -12.72130 -40.51009 3192 ft 162 kts 47°
2026-04-27 17:53 -12.71337 -40.50174 3109 ft 164 kts 47°
2026-04-27 17:53 -12.70553 -40.49341 3040 ft 164 kts 47°
2026-04-27 17:53 -12.69760 -40.48505 2971 ft 164 kts 47°
2026-04-27 17:53 -12.68969 -40.47666 2899 ft 164 kts 47°
2026-04-27 17:54 -12.68181 -40.46827 2822 ft 162 kts 46°
2026-04-27 17:54 -12.67399 -40.45999 2811 ft 160 kts 47°
2026-04-27 17:54 -12.66632 -40.45185 2814 ft 159 kts 46°
2026-04-27 17:54 -12.65868 -40.44368 2812 ft 159 kts 47°
2026-04-27 17:55 -12.65097 -40.43550 2812 ft 161 kts 46°
2026-04-27 17:55 -12.64314 -40.42722 2810 ft 161 kts 47°
2026-04-27 17:55 -12.63540 -40.41896 2815 ft 161 kts 47°
2026-04-27 17:55 -12.62768 -40.41075 2813 ft 160 kts 47°
2026-04-27 17:56 -12.62008 -40.40268 2805 ft 158 kts 47°
2026-04-27 17:56 -12.61249 -40.39458 2816 ft 158 kts 47°
2026-04-27 17:56 -12.60471 -40.38638 2808 ft 161 kts 47°
2026-04-27 17:56 -12.59693 -40.37819 2807 ft 161 kts 47°
2026-04-27 17:57 -12.58914 -40.37004 2808 ft 160 kts 47°
2026-04-27 17:57 -12.58146 -40.36193 2800 ft 157 kts 46°
2026-04-27 17:57 -12.57413 -40.35360 2799 ft 157 kts 50°
2026-04-27 17:57 -12.56758 -40.34481 2798 ft 155 kts 55°
2026-04-27 17:58 -12.56128 -40.33580 2801 ft 157 kts 55°
2026-04-27 17:58 -12.55482 -40.32674 2802 ft 158 kts 55°
2026-04-27 17:58 -12.54826 -40.31756 2801 ft 160 kts 54°
2026-04-27 17:58 -12.54172 -40.30831 2802 ft 159 kts 55°
2026-04-27 17:59 -12.53513 -40.29919 2802 ft 159 kts 53°
2026-04-27 17:59 -12.52765 -40.29090 2799 ft 158 kts 45°
2026-04-27 17:59 -12.52002 -40.28281 2797 ft 159 kts 44°
2026-04-27 17:59 -12.51103 -40.27614 2787 ft 160 kts 35°
2026-04-27 18:00 -12.50196 -40.26984 2790 ft 159 kts 36°
2026-04-27 18:00 -12.49191 -40.26517 2755 ft 164 kts
2026-04-27 18:00 -12.48138 -40.26934 2692 ft 169 kts 317°
2026-04-27 18:00 -12.47484 -40.27923 2691 ft 167 kts 302°
2026-04-27 18:01 -12.46863 -40.28932 2694 ft 168 kts 303°
2026-04-27 18:01 -12.46241 -40.29936 2697 ft 166 kts 303°
2026-04-27 18:01 -12.45623 -40.30942 2700 ft 168 kts 303°
2026-04-27 18:01 -12.45061 -40.31986 2674 ft 168 kts 288°
2026-04-27 18:02 -12.45228 -40.33134 2618 ft 169 kts 237°
2026-04-27 18:02 -12.46167 -40.33748 2561 ft 165 kts 188°
2026-04-27 18:02 -12.47206 -40.33448 2518 ft 147 kts 143°
2026-04-27 18:02 -12.47940 -40.32830 2499 ft 128 kts 140°
2026-04-27 18:03 -12.48550 -40.32316 2466 ft 100 kts 134°
2026-04-27 18:03 -12.48954 -40.31820 2436 ft 85 kts 128°
2026-04-27 18:03 -12.49113 -40.31284 2374 ft 81 kts 86°
2026-04-27 18:03 -12.49164 -40.30664 2186 ft 91 kts 97°
2026-04-27 18:04 -12.49219 -40.30008 2007 ft 94 kts 95°
2026-04-27 18:04 -12.49283 -40.29344 1832 ft 94 kts 95°
2026-04-27 18:04 -12.49371 -40.28678 1633 ft 95 kts 101°
2026-04-27 18:04 -12.49530 -40.27997 1271 ft 105 kts 107°
2026-04-27 18:05 -12.49824 -40.27329 953 ft 96 kts 117°
2026-04-27 18:05 -12.50072 -40.26829 930 ft 52 kts 117°
2026-04-27 18:05 -12.50133 -40.26757 925 ft 8 kts 253°
2026-04-27 18:05 -12.50160 -40.26814 925 ft 0 kts 237°